Littleton, CO (80127)

6:22 AM MDT on July 31, 2015 (GMT -0600)
Mill Hollow | | Change Station
CLOSE
Current Station
Personal Weather Station
Location: Littleton, CO
Elevation: 7125 ft
Nearby Weather Stations

Elev 7125 ft 39.52 °N, 105.16 °W | Updated 3 minutes ago

Clear
Clear
55.2 °F
Feels Like 55.2 °F
N
0.0
Wind Variable Wind from SSW
Gusts 6.0 mph

Today
High -- | Low -- °F
--% Chance of Precip.
Yesterday
High -- | Low -- °F
Precip. -- in
5:59 AM 8:14 PM
Full, 100% visible
Pressure 30.14 in
Visibility 10.0 miles
Clouds Few 22000 ft
Dew Point 46 °F
Humidity 70%
Rainfall 0.00 in
Snow Depth Not available.
UV 0 out of 12
Pollen 6.80 out of 12
Air Quality Not available.
Flu Activity Not available.
METAR KAPA 311153Z 26004KT 10SM FEW220 16/10 A3037 RMK AO2 SLP207 T01610100 10211 20150 53005

More Conditions Fewer Conditions

Pressure 30.14 in
Visibility 10.0 miles
Clouds Few 22000 ft
Dew Point 46 °F
Humidity 70%
Rainfall 0.00 in
Snow Depth Not available.
UV 0 out of 12
Pollen 6.80 out of 12
Air Quality Not available.
Flu Activity Not available.
METAR KAPA 311153Z 26004KT 10SM FEW220 16/10 A3037 RMK AO2 SLP207 T01610100 10211 20150 53005

More Conditions Fewer Conditions

10-Day Weather Forecast

×

Almanac

Astronomy

Jul. 31, 2015 Rise Set
Actual Time
Civil Twilight
Nautical Twilight
Astronomical Twilight
Moon
Length of Visible Light
Length of Day
Tomorrow will be .
, % of the Moon is Illuminated

Today's Extremes

State Highs State Lows

Community

WunderPhotos

Upload Photos

1,842,646 photos uploaded!

WunderBlogs® & News

Nearby

Air Quality

  Air Quality AQ Index Pollutant
Not available.

Snow Depth

Station Depth Elevation

Earthquake Activity

City Distance Mag. Time & Date
Minimum magnitude displayed is 2.5.

Coastal Water Temperatures

Place Temperature

Stations

Nearby Weather Stations

Station Location Temp. Windchill Dew Point Humidity Wind Precip. Elev Updated Type